createdAt,value
2018-03-14T00:00:51.795Z,71.56
2018-03-14T00:01:51.492Z,71.27
2018-03-14T00:02:51.507Z,71.46
2018-03-14T00:03:52.405Z,71.75
2018-03-14T00:04:51.861Z,71.66
2018-03-14T00:05:51.838Z,71.56
2018-03-14T00:06:51.565Z,72.13
2018-03-14T00:07:51.886Z,72.22
2018-03-14T00:08:51.878Z,72.03
2018-03-14T00:09:51.595Z,71.94
2018-03-14T00:10:51.929Z,72.03
2018-03-14T00:11:52.566Z,72.03
2018-03-14T00:12:51.949Z,72.13
2018-03-14T00:13:51.647Z,72.03
2018-03-14T00:14:51.661Z,72.13
2018-03-14T00:15:51.978Z,72.13
2018-03-14T00:16:51.688Z,72.03
2018-03-14T00:17:51.998Z,71.94
2018-03-14T00:18:52.005Z,72.13
2018-03-14T00:19:52.705Z,72.22
2018-03-14T00:20:52.041Z,71.94
2018-03-14T00:21:51.751Z,71.94
2018-03-14T00:22:52.070Z,72.22
2018-03-14T00:23:52.070Z,72.03
2018-03-14T00:24:52.090Z,72.03
2018-03-14T00:25:52.116Z,72.03
2018-03-14T00:26:52.123Z,71.75
2018-03-14T00:27:52.889Z,72.03
2018-03-14T00:28:52.146Z,71.84
2018-03-14T00:29:52.165Z,72.03
2018-03-14T00:30:52.183Z,72.03
2018-03-14T00:31:52.171Z,72.03
2018-03-14T00:32:52.215Z,71.94
2018-03-14T00:33:51.906Z,71.84
2018-03-14T00:34:52.222Z,71.94
2018-03-14T00:35:51.931Z,71.75
2018-03-14T00:36:51.947Z,72.22
2018-03-14T00:37:51.957Z,72.51
2018-03-14T00:38:51.970Z,72.41
2018-03-14T00:39:52.278Z,72.51
2018-03-14T00:40:51.996Z,72.51
2018-03-14T00:41:52.007Z,72.6
2018-03-14T00:42:52.317Z,72.41
2018-03-14T00:43:53.210Z,72.6
2018-03-14T00:44:52.047Z,72.6
2018-03-14T00:45:52.059Z,72.6
2018-03-14T00:46:52.367Z,72.41
2018-03-14T00:47:52.444Z,72.51
2018-03-14T00:48:52.398Z,72.7
2018-03-14T00:49:52.405Z,72.32
2018-03-14T00:50:52.760Z,72.41
2018-03-14T00:51:52.438Z,72.41
2018-03-14T00:52:52.467Z,72.41
2018-03-14T00:53:52.467Z,72.32
2018-03-14T00:54:52.482Z,72.35
2018-03-14T00:55:52.508Z,72.7
2018-03-14T00:56:52.495Z,72.64
2018-03-14T00:57:52.212Z,72.7
2018-03-14T00:58:53.243Z,72.35
2018-03-14T00:59:52.240Z,72.45
2018-03-14T01:00:52.554Z,71.88
2018-03-14T01:01:52.264Z,71.88
2018-03-14T01:02:52.578Z,71.88
2018-03-14T01:03:52.602Z,71.88
2018-03-14T01:04:52.596Z,71.94
2018-03-14T01:05:52.314Z,71.88
2018-03-14T01:06:52.333Z,72.07
2018-03-14T01:07:52.644Z,72.22
2018-03-14T01:08:52.356Z,72.13
2018-03-14T01:09:52.366Z,72.13
2018-03-14T01:10:52.382Z,71.94
2018-03-14T01:11:52.393Z,71.97
2018-03-14T01:12:52.407Z,71.97
2018-03-14T01:13:52.709Z,71.78
2018-03-14T01:14:53.322Z,72.26
2018-03-14T01:15:52.750Z,72.16
2018-03-14T01:16:52.459Z,72.13
2018-03-14T01:17:52.468Z,72.03
2018-03-14T01:18:52.786Z,71.94
2018-03-14T01:19:52.793Z,72.35
2018-03-14T01:20:52.800Z,72.41
2018-03-14T01:21:53.150Z,72.22
2018-03-14T01:22:52.828Z,71.94
2018-03-14T01:23:52.545Z,72.32
2018-03-14T01:24:52.886Z,72.35
2018-03-14T01:25:52.572Z,72.41
2018-03-14T01:26:52.586Z,72.22
2018-03-14T01:27:52.597Z,71.97
2018-03-14T01:28:52.613Z,72.26
2018-03-14T01:29:52.627Z,72.03
2018-03-14T01:30:52.931Z,72.35
2018-03-14T01:31:52.650Z,72.13
2018-03-14T01:32:52.987Z,71.97
2018-03-14T01:33:52.976Z,72.07
2018-03-14T01:34:52.984Z,71.78
2018-03-14T01:35:53.030Z,71.97
2018-03-14T01:36:52.723Z,71.97
2018-03-14T01:37:53.860Z,71.97
2018-03-14T01:38:53.034Z,72.35
2018-03-14T01:39:53.049Z,72.7
2018-03-14T01:40:53.062Z,72.64
2018-03-14T01:41:52.777Z,72.45
2018-03-14T01:42:52.790Z,72.07
2018-03-14T01:43:53.098Z,71.88
2018-03-14T01:44:53.107Z,72.16
2018-03-14T01:45:52.832Z,72.55
2018-03-14T01:46:52.841Z,72.55
2018-03-14T01:47:53.166Z,72.64
2018-03-14T01:48:53.160Z,72.35
2018-03-14T01:49:52.883Z,72.45
2018-03-14T01:50:52.893Z,72.16
2018-03-14T01:51:53.202Z,72.07
2018-03-14T01:52:52.919Z,72.16
2018-03-14T01:53:52.930Z,72.07
2018-03-14T01:54:53.241Z,72.16
2018-03-14T01:55:52.957Z,72.16
2018-03-14T01:56:53.301Z,71.97
2018-03-14T01:57:53.284Z,72.16
2018-03-14T01:58:52.998Z,71.97
2018-03-14T01:59:53.304Z,72.07
2018-03-14T02:00:54.127Z,71.97
2018-03-14T02:01:53.336Z,72.45
2018-03-14T02:02:53.065Z,72.13
2018-03-14T02:03:53.063Z,71.94
2018-03-14T02:04:53.375Z,72.16
2018-03-14T02:05:53.087Z,72.03
2018-03-14T02:06:53.100Z,71.88
2018-03-14T02:07:53.112Z,72.03
2018-03-14T02:08:53.176Z,72.35
2018-03-14T02:09:53.139Z,72.6
2018-03-14T02:10:53.447Z,72.64
2018-03-14T02:11:53.479Z,72.74
2018-03-14T02:12:53.473Z,72.32
2018-03-14T02:13:53.489Z,72.51
2018-03-14T02:14:53.493Z,72.26
2018-03-14T02:15:53.511Z,72.32
2018-03-14T02:16:53.227Z,72.35
2018-03-14T02:17:53.548Z,72.32
2018-03-14T02:18:53.598Z,72.55
2018-03-14T02:19:53.273Z,72.64
2018-03-14T02:20:53.280Z,72.74
2018-03-14T02:21:53.612Z,72.07
2018-03-14T02:22:53.305Z,71.78
2018-03-14T02:23:54.142Z,72.07
2018-03-14T02:24:53.628Z,71.97
2018-03-14T02:25:53.645Z,72.16
2018-03-14T02:26:53.654Z,72.16
2018-03-14T02:27:53.682Z,71.75
2018-03-14T02:28:53.383Z,71.75
2018-03-14T02:29:53.395Z,71.75
2018-03-14T02:30:53.737Z,72.13
2018-03-14T02:31:54.421Z,72.03
2018-03-14T02:32:53.731Z,71.84
2018-03-14T02:33:53.742Z,72.45
2018-03-14T02:34:53.459Z,72.51
2018-03-14T02:35:53.477Z,72.35
2018-03-14T02:36:53.797Z,72.51
2018-03-14T02:37:53.497Z,72.7
2018-03-14T02:38:53.806Z,72.51
2018-03-14T02:39:53.525Z,72.7
2018-03-14T02:40:53.534Z,72.32
2018-03-14T02:41:53.849Z,72.32
2018-03-14T02:42:53.871Z,72.7
2018-03-14T02:43:53.866Z,72.32
2018-03-14T02:44:53.871Z,71.94
2018-03-14T02:45:53.886Z,72.22
2018-03-14T02:46:53.899Z,72.32
2018-03-14T02:47:53.908Z,72.74
2018-03-14T02:48:53.923Z,72.55
2018-03-14T02:49:53.941Z,72.6
2018-03-14T02:50:53.948Z,72.32
2018-03-14T02:51:53.967Z,72.51
2018-03-14T02:52:53.972Z,72.35
2018-03-14T02:53:53.987Z,72.7
2018-03-14T02:54:54.002Z,72.41
2018-03-14T02:55:54.017Z,72.7
2018-03-14T02:56:53.744Z,72.6
2018-03-14T02:57:54.038Z,72.51
2018-03-14T02:58:54.051Z,72.51
2018-03-14T02:59:54.063Z,72.6
2018-03-14T03:00:54.079Z,72.32
2018-03-14T03:01:54.089Z,72.22
2018-03-14T03:02:53.820Z,72.22
2018-03-14T03:03:54.117Z,72.35
2018-03-14T03:04:54.126Z,72.32
2018-03-14T03:05:54.144Z,72.22
2018-03-14T03:06:54.156Z,72.32
2018-03-14T03:07:54.166Z,72.35
2018-03-14T03:08:54.182Z,72.7
2018-03-14T03:09:53.910Z,72.79
2018-03-14T03:10:54.204Z,72.79
2018-03-14T03:11:54.215Z,72.7
2018-03-14T03:12:53.946Z,72.41
2018-03-14T03:13:54.249Z,72.89
2018-03-14T03:14:54.255Z,72.55
2018-03-14T03:15:54.268Z,72.16
2018-03-14T03:16:54.278Z,72.35
2018-03-14T03:17:54.012Z,72.35
2018-03-14T03:18:54.304Z,72.26
2018-03-14T03:19:54.328Z,72.35
2018-03-14T03:20:54.330Z,72.26
2018-03-14T03:21:54.060Z,72.35
2018-03-14T03:22:54.075Z,72.26
2018-03-14T03:23:54.086Z,72.55
2018-03-14T03:24:54.387Z,72.35
2018-03-14T03:25:54.113Z,72.51
2018-03-14T03:26:54.412Z,72.55
2018-03-14T03:27:54.423Z,72.55
2018-03-14T03:28:54.435Z,72.6
2018-03-14T03:29:54.451Z,72.26
2018-03-14T03:30:54.476Z,72.74
2018-03-14T03:31:54.192Z,72.16
2018-03-14T03:32:54.487Z,72.35
2018-03-14T03:33:54.506Z,72.55
2018-03-14T03:34:54.592Z,72.32
2018-03-14T03:35:54.242Z,72.51
2018-03-14T03:36:54.256Z,72.55
2018-03-14T03:37:54.554Z,72.35
2018-03-14T03:38:54.574Z,72.55
2018-03-14T03:39:54.578Z,73.11
2018-03-14T03:40:54.307Z,72.99
2018-03-14T03:41:54.604Z,72.83
2018-03-14T03:42:54.621Z,72.89
2018-03-14T03:43:54.626Z,72.64
2018-03-14T03:44:54.648Z,72.74
2018-03-14T03:45:54.654Z,72.74
2018-03-14T03:46:54.666Z,73.02
2018-03-14T03:47:54.396Z,72.74
2018-03-14T03:48:54.414Z,72.83
2018-03-14T03:49:54.709Z,72.74
2018-03-14T03:50:54.719Z,72.45
2018-03-14T03:51:54.446Z,72.55
2018-03-14T03:52:54.751Z,72.45
2018-03-14T03:53:54.756Z,72.45
2018-03-14T03:54:54.768Z,72.74
2018-03-14T03:55:54.782Z,72.35
2018-03-14T03:56:54.798Z,72.92
2018-03-14T03:57:54.805Z,72.45
2018-03-14T03:58:54.823Z,72.45
2018-03-14T03:59:54.843Z,72.55
2018-03-14T04:00:54.566Z,72.55
2018-03-14T04:01:54.859Z,72.35
2018-03-14T04:02:54.590Z,72.55
2018-03-14T04:03:54.886Z,72.26
2018-03-14T04:04:54.896Z,72.35
2018-03-14T04:05:54.910Z,72.35
2018-03-14T04:06:54.640Z,72.35
2018-03-14T04:07:54.937Z,72.26
2018-03-14T04:08:54.950Z,72.7
2018-03-14T04:09:54.965Z,72.26
2018-03-14T04:10:54.976Z,72.26
2018-03-14T04:11:54.989Z,72.35
2018-03-14T04:12:55.000Z,72.22
2018-03-14T04:13:55.015Z,72.74
2018-03-14T04:14:55.031Z,72.55
2018-03-14T04:15:55.043Z,73.02
2018-03-14T04:16:55.050Z,72.83
2018-03-14T04:17:55.066Z,72.92
2018-03-14T04:18:55.075Z,72.92
2018-03-14T04:19:54.807Z,72.92
2018-03-14T04:20:55.105Z,73.02
2018-03-14T04:21:54.836Z,72.92
2018-03-14T04:22:55.140Z,72.83
2018-03-14T04:23:55.235Z,72.92
2018-03-14T04:24:55.154Z,72.74
2018-03-14T04:25:55.165Z,72.74
2018-03-14T04:26:54.896Z,73.02
2018-03-14T04:27:55.196Z,72.74
2018-03-14T04:28:54.925Z,72.74
2018-03-14T04:29:55.221Z,73.02
2018-03-14T04:30:55.232Z,72.92
2018-03-14T04:31:54.963Z,73.02
2018-03-14T04:32:54.984Z,72.92
2018-03-14T04:33:55.272Z,72.64
2018-03-14T04:34:55.284Z,72.83
2018-03-14T04:35:55.064Z,72.35
2018-03-14T04:36:55.307Z,72.16
2018-03-14T04:37:55.324Z,72.64
2018-03-14T04:38:55.064Z,72.55
2018-03-14T04:39:55.348Z,72.64
2018-03-14T04:40:55.358Z,72.74
2018-03-14T04:41:55.375Z,72.64
2018-03-14T04:42:55.385Z,72.55
2018-03-14T04:43:55.396Z,72.55
2018-03-14T04:44:55.410Z,72.55
2018-03-14T04:45:55.142Z,72.55
2018-03-14T04:46:55.441Z,72.64
2018-03-14T04:47:55.451Z,72.74
2018-03-14T04:48:55.468Z,72.35
2018-03-14T04:49:55.476Z,72.74
2018-03-14T04:50:55.540Z,72.26
2018-03-14T04:51:55.502Z,72.35
2018-03-14T04:52:55.512Z,72.55
2018-03-14T04:53:55.527Z,72.7
2018-03-14T04:54:55.543Z,72.32
2018-03-14T04:55:55.554Z,72.32
2018-03-14T04:56:55.572Z,72.26
2018-03-14T04:57:55.579Z,72.55
2018-03-14T04:58:55.307Z,72.64
2018-03-14T04:59:55.605Z,72.64
2018-03-14T05:00:55.336Z,72.55
2018-03-14T05:01:55.651Z,72.64
2018-03-14T05:02:55.642Z,72.26
2018-03-14T05:03:55.374Z,72.35
2018-03-14T05:04:55.672Z,73.11
2018-03-14T05:05:55.868Z,72.92
2018-03-14T05:06:55.697Z,72.64
2018-03-14T05:07:55.709Z,72.7
2018-03-14T05:08:55.720Z,73.02
2018-03-14T05:09:55.732Z,72.99
2018-03-14T05:10:55.752Z,72.74
2018-03-14T05:11:55.763Z,72.55
2018-03-14T05:12:55.772Z,73.02
2018-03-14T05:13:55.784Z,72.45
2018-03-14T05:14:55.802Z,72.99
2018-03-14T05:15:55.810Z,72.74
2018-03-14T05:16:55.822Z,72.92
2018-03-14T05:17:55.841Z,72.74
2018-03-14T05:18:55.848Z,73.02
2018-03-14T05:19:55.862Z,72.64
2018-03-14T05:20:55.877Z,73.02
2018-03-14T05:21:55.898Z,72.74
2018-03-14T05:22:55.625Z,72.83
2018-03-14T05:23:55.922Z,72.74
2018-03-14T05:24:55.927Z,72.92
2018-03-14T05:25:55.939Z,73.11
2018-03-14T05:26:55.950Z,72.45
2018-03-14T05:27:55.963Z,72.35
2018-03-14T05:28:55.974Z,72.35
2018-03-14T05:29:55.991Z,72.35
2018-03-14T05:30:55.721Z,72.74
2018-03-14T05:31:55.734Z,71.97
2018-03-14T05:32:55.757Z,72.07
2018-03-14T05:33:56.041Z,71.97
2018-03-14T05:34:55.771Z,71.97
2018-03-14T05:35:55.785Z,71.88
2018-03-14T05:36:55.798Z,71.88
2018-03-14T05:37:56.096Z,72.32
2018-03-14T05:38:56.109Z,72.16
2018-03-14T05:39:56.115Z,72.22
2018-03-14T05:40:55.848Z,71.97
2018-03-14T05:41:56.170Z,72.16
2018-03-14T05:42:56.363Z,71.88
2018-03-14T05:43:56.176Z,71.97
2018-03-14T05:44:55.899Z,72.16
2018-03-14T05:45:56.219Z,72.07
2018-03-14T05:46:55.930Z,71.78
2018-03-14T05:47:56.222Z,71.97
2018-03-14T05:48:55.953Z,71.88
2018-03-14T05:49:56.247Z,71.97
2018-03-14T05:50:55.977Z,72.26
2018-03-14T05:51:56.274Z,72.64
2018-03-14T05:52:56.286Z,72.6
2018-03-14T05:53:56.017Z,72.7
2018-03-14T05:54:56.310Z,72.6
2018-03-14T05:55:56.324Z,72.64
2018-03-14T05:56:56.340Z,72.6
2018-03-14T05:57:56.066Z,72.64
2018-03-14T05:58:56.080Z,72.55
2018-03-14T05:59:56.379Z,72.74
2018-03-14T06:00:56.386Z,72.45
2018-03-14T06:01:56.400Z,72.55
2018-03-14T06:02:56.430Z,72.74
2018-03-14T06:03:56.431Z,72.35
2018-03-14T06:04:56.442Z,72.64
2018-03-14T06:05:56.460Z,72.26
2018-03-14T06:06:56.244Z,72.26
2018-03-14T06:07:56.195Z,72.45
2018-03-14T06:08:56.494Z,72.45
2018-03-14T06:09:56.504Z,72.64
2018-03-14T06:10:56.240Z,72.64
2018-03-14T06:11:56.529Z,72.55
2018-03-14T06:12:56.542Z,72.74
2018-03-14T06:13:56.558Z,72.35
2018-03-14T06:14:56.287Z,72.64
2018-03-14T06:15:56.584Z,72.64
2018-03-14T06:16:56.595Z,72.83
2018-03-14T06:17:56.325Z,72.45
2018-03-14T06:18:56.620Z,71.88
2018-03-14T06:19:56.636Z,72.16
2018-03-14T06:20:56.644Z,72.26
2018-03-14T06:21:56.659Z,72.26
2018-03-14T06:22:56.684Z,72.35
2018-03-14T06:23:56.682Z,72.64
2018-03-14T06:24:56.726Z,72.55
2018-03-14T06:25:56.709Z,72.55
2018-03-14T06:26:56.730Z,72.64
2018-03-14T06:27:56.734Z,72.55
2018-03-14T06:28:56.752Z,72.64
2018-03-14T06:29:56.851Z,72.35
2018-03-14T06:30:56.774Z,72.74
2018-03-14T06:31:56.788Z,72.64
2018-03-14T06:32:56.803Z,72.45
2018-03-14T06:33:56.529Z,72.55
2018-03-14T06:34:56.829Z,72.07
2018-03-14T06:35:56.846Z,72.55
2018-03-14T06:36:56.849Z,72.55
2018-03-14T06:37:56.866Z,72.55
2018-03-14T06:38:56.883Z,72.74
2018-03-14T06:39:56.609Z,72.64
2018-03-14T06:40:56.908Z,72.64
2018-03-14T06:41:56.637Z,72.64
2018-03-14T06:42:56.647Z,72.35
2018-03-14T06:43:56.943Z,72.45
2018-03-14T06:44:56.961Z,72.55
2018-03-14T06:45:56.977Z,72.35
2018-03-14T06:46:56.981Z,72.74
2018-03-14T06:47:56.713Z,72.35
2018-03-14T06:48:56.725Z,72.64
2018-03-14T06:49:56.738Z,72.64
2018-03-14T06:50:57.035Z,72.74
2018-03-14T06:51:57.046Z,72.45
2018-03-14T06:52:57.058Z,72.07
2018-03-14T06:53:57.070Z,71.97
2018-03-14T06:54:57.089Z,72.07
2018-03-14T06:55:57.106Z,71.88
2018-03-14T06:56:56.828Z,72.07
2018-03-14T06:57:56.844Z,72.07
2018-03-14T06:58:57.170Z,71.97
2018-03-14T06:59:56.866Z,72.07
2018-03-14T07:00:57.163Z,72.07
2018-03-14T07:01:56.934Z,72.26
2018-03-14T07:02:57.192Z,72.26
2018-03-14T07:03:57.204Z,72.74
2018-03-14T07:04:57.277Z,72.26
2018-03-14T07:05:57.229Z,72.26
2018-03-14T07:06:56.957Z,72.74
2018-03-14T07:07:56.971Z,72.64
2018-03-14T07:08:57.270Z,72.74
2018-03-14T07:09:56.999Z,72.55
2018-03-14T07:10:57.025Z,72.64
2018-03-14T07:11:57.050Z,72.55
2018-03-14T07:12:57.037Z,72.45
2018-03-14T07:13:57.050Z,72.64
2018-03-14T07:14:57.344Z,72.74
2018-03-14T07:15:57.371Z,72.26
2018-03-14T07:16:57.372Z,72.35
2018-03-14T07:17:57.386Z,72.35
2018-03-14T07:18:57.409Z,72.16
2018-03-14T07:19:57.128Z,72.26
2018-03-14T07:20:57.432Z,72.26
2018-03-14T07:21:57.440Z,72.55
2018-03-14T07:22:57.450Z,72.77
2018-03-14T07:23:57.462Z,72.77
2018-03-14T07:24:57.475Z,72.49
2018-03-14T07:25:57.486Z,72.86
2018-03-14T07:26:57.503Z,72.86
2018-03-14T07:27:57.517Z,72.96
2018-03-14T07:28:57.530Z,72.96
2018-03-14T07:29:57.260Z,72.39
2018-03-14T07:30:57.276Z,72.49
2018-03-14T07:31:57.583Z,72.58
2018-03-14T07:32:57.636Z,72.58
2018-03-14T07:33:57.311Z,72.58
2018-03-14T07:34:57.605Z,72.3
2018-03-14T07:35:57.624Z,72.58
2018-03-14T07:36:57.354Z,72.39
2018-03-14T07:37:57.695Z,72.58
2018-03-14T07:38:57.376Z,72.58
2018-03-14T07:39:57.676Z,72.58
2018-03-14T07:40:57.687Z,72.86
2018-03-14T07:41:57.416Z,72.3
2018-03-14T07:42:57.428Z,72.11
2018-03-14T07:43:57.725Z,72.11
2018-03-14T07:44:57.738Z,72.11
2018-03-14T07:45:57.756Z,72.2
2018-03-14T07:46:57.766Z,72.3
2018-03-14T07:47:57.494Z,71.72
2018-03-14T07:48:57.593Z,72.11
2018-03-14T07:49:57.819Z,71.72
2018-03-14T07:50:57.819Z,72.49
2018-03-14T07:51:57.831Z,72.2
2018-03-14T07:52:57.899Z,72.2
2018-03-14T07:53:57.575Z,71.82
2018-03-14T07:54:57.588Z,71.72
2018-03-14T07:55:57.888Z,71.15
2018-03-14T07:56:57.907Z,71.63
2018-03-14T07:57:57.625Z,71.53
2018-03-14T07:58:57.955Z,71.53
2018-03-14T07:59:57.934Z,71.44
2018-03-14T08:00:57.951Z,71.44
2018-03-14T08:01:57.967Z,71.34
2018-03-14T08:02:58.029Z,71.53
2018-03-14T08:03:57.993Z,71.53
2018-03-14T08:04:58.007Z,71.53
2018-03-14T08:05:58.016Z,71.72
2018-03-14T08:06:58.032Z,71.72
2018-03-14T08:07:57.813Z,71.63
2018-03-14T08:08:57.775Z,71.15
2018-03-14T08:09:58.073Z,71.15
2018-03-14T08:10:57.803Z,70.87
2018-03-14T08:11:57.817Z,70.97
2018-03-14T08:12:57.831Z,70.97
2018-03-14T08:13:57.913Z,71.06
2018-03-14T08:14:58.144Z,70.77
2018-03-14T08:15:58.172Z,71.25
2018-03-14T08:16:57.884Z,71.15
2018-03-14T08:17:58.179Z,71.15
2018-03-14T08:18:58.195Z,70.97
2018-03-14T08:19:57.925Z,71.25
2018-03-14T08:20:58.222Z,71.15
2018-03-14T08:21:58.232Z,71.25
2018-03-14T08:22:58.250Z,71.25
2018-03-14T08:23:58.262Z,71.15
2018-03-14T08:24:58.274Z,71.15
2018-03-14T08:25:58.566Z,71.06
2018-03-14T08:26:58.303Z,70.77
2018-03-14T08:27:58.313Z,70.97
2018-03-14T08:28:58.327Z,70.68
2018-03-14T08:29:58.591Z,70.68
2018-03-14T08:30:58.361Z,71.25
2018-03-14T08:31:58.369Z,70.77
2018-03-14T08:32:58.433Z,70.81
2018-03-14T08:33:58.418Z,71
2018-03-14T08:34:58.134Z,71.15
2018-03-14T08:35:58.143Z,71.06
2018-03-14T08:36:58.441Z,70.52
2018-03-14T08:37:58.462Z,70.87
2018-03-14T08:38:58.463Z,70.9
2018-03-14T08:39:58.194Z,70.87
2018-03-14T08:40:58.490Z,70.49
2018-03-14T08:41:58.517Z,71.19
2018-03-14T08:42:58.517Z,71.06
2018-03-14T08:43:58.536Z,71.28
2018-03-14T08:44:58.543Z,71.15
2018-03-14T08:45:58.558Z,71.28
2018-03-14T08:46:58.287Z,71.15
2018-03-14T08:47:58.591Z,71.15
2018-03-14T08:48:58.317Z,71.06
2018-03-14T08:49:58.622Z,71.15
2018-03-14T08:50:58.630Z,71.25
2018-03-14T08:51:58.641Z,71.19
2018-03-14T08:52:58.654Z,71.15
2018-03-14T08:53:58.664Z,71.25
2018-03-14T08:54:58.397Z,71.28
2018-03-14T08:55:58.692Z,70.97
2018-03-14T08:56:58.706Z,71.15
2018-03-14T08:57:58.727Z,71
2018-03-14T08:58:58.736Z,71.28
2018-03-14T08:59:58.746Z,71.28
2018-03-14T09:00:58.763Z,71.19
2018-03-14T09:01:58.777Z,71.19
2018-03-14T09:02:58.792Z,71.19
2018-03-14T09:03:58.802Z,71.19
2018-03-14T09:04:58.820Z,71.28
2018-03-14T09:05:58.828Z,71.19
2018-03-14T09:06:58.843Z,71
2018-03-14T09:07:58.859Z,71.09
2018-03-14T09:08:58.877Z,71.19
2018-03-14T09:09:58.885Z,71.28
2018-03-14T09:10:58.896Z,71.09
2018-03-14T09:11:58.910Z,71.19
2018-03-14T09:12:58.644Z,71.19
2018-03-14T09:13:58.656Z,71.19
2018-03-14T09:14:58.959Z,71.28
2018-03-14T09:15:58.968Z,71.19
2018-03-14T09:16:58.702Z,71.19
2018-03-14T09:17:58.713Z,71.19
2018-03-14T09:18:59.014Z,70.72
2018-03-14T09:19:59.022Z,70.81
2018-03-14T09:20:59.043Z,70.81
2018-03-14T09:21:58.766Z,70.72
2018-03-14T09:22:58.780Z,70.72
2018-03-14T09:23:59.078Z,71
2018-03-14T09:24:59.124Z,70.72
2018-03-14T09:25:59.104Z,70.52
2018-03-14T09:26:59.125Z,70.62
2018-03-14T09:27:59.136Z,70.81
2018-03-14T09:28:58.863Z,70.72
2018-03-14T09:29:59.166Z,71
2018-03-14T09:30:59.175Z,70.62
2018-03-14T09:31:59.193Z,70.72
2018-03-14T09:32:58.918Z,70.52
2018-03-14T09:33:59.270Z,70.52
2018-03-14T09:34:59.231Z,70.14
2018-03-14T09:35:59.249Z,70.37
2018-03-14T09:36:58.976Z,70.52
2018-03-14T09:37:58.991Z,70.72
2018-03-14T09:38:59.292Z,70.08
2018-03-14T09:39:59.018Z,70.52
2018-03-14T09:40:59.312Z,70.27
2018-03-14T09:41:59.045Z,70.33
2018-03-14T09:42:59.344Z,70.24
2018-03-14T09:43:59.358Z,70.52
2018-03-14T09:44:59.369Z,70.72
2018-03-14T09:45:59.389Z,70.75
2018-03-14T09:46:59.402Z,70.52
2018-03-14T09:47:59.417Z,70.65
2018-03-14T09:48:59.195Z,70.24
2018-03-14T09:49:59.440Z,70.33
2018-03-14T09:50:59.457Z,70.56
2018-03-14T09:51:59.472Z,70.56
2018-03-14T09:52:59.202Z,70.47
2018-03-14T09:53:59.514Z,70.47
2018-03-14T09:54:59.514Z,70.08
2018-03-14T09:55:59.529Z,70.08
2018-03-14T09:56:59.263Z,69.99
2018-03-14T09:57:59.555Z,70.27
2018-03-14T09:58:59.566Z,70.37
2018-03-14T09:59:59.586Z,70.47
2018-03-14T10:00:59.600Z,69.89
2018-03-14T10:01:59.328Z,69.79
2018-03-14T10:02:59.628Z,69.89
2018-03-14T10:03:59.409Z,70.27
2018-03-14T10:04:59.376Z,69.79
2018-03-14T10:05:59.674Z,70.37
2018-03-14T10:06:59.681Z,69.89
2018-03-14T10:07:59.696Z,69.79
2018-03-14T10:08:59.762Z,69.6
2018-03-14T10:09:59.723Z,69.6
2018-03-14T10:10:59.740Z,69.89
2018-03-14T10:11:59.754Z,69.79
2018-03-14T10:12:59.485Z,69.32
2018-03-14T10:13:59.835Z,69.6
2018-03-14T10:14:59.798Z,69.42
2018-03-14T10:15:59.548Z,69.04
2018-03-14T10:16:59.828Z,69.23
2018-03-14T10:17:59.840Z,69.23
2018-03-14T10:18:59.858Z,69.13
2018-03-14T10:19:59.872Z,69.32
2018-03-14T10:20:59.883Z,69.32
2018-03-14T10:21:59.899Z,69.42
2018-03-14T10:22:59.918Z,69.32
2018-03-14T10:23:59.692Z,69.7
2018-03-14T10:24:59.657Z,69.04
2018-03-14T10:26:00.050Z,69.99
2018-03-14T10:26:59.690Z,69.23
2018-03-14T10:27:59.984Z,69.04
2018-03-14T10:28:59.998Z,69.04
2018-03-14T10:30:00.013Z,69.13
2018-03-14T10:31:00.064Z,69.13
2018-03-14T10:32:00.044Z,69.23
2018-03-14T10:32:59.774Z,68.94
2018-03-14T10:34:00.067Z,68.84
2018-03-14T10:35:00.086Z,69.04
2018-03-14T10:36:00.107Z,69.23
2018-03-14T10:36:59.830Z,69.13
2018-03-14T10:38:00.136Z,69.79
2018-03-14T10:38:59.932Z,68.94
2018-03-14T10:40:00.158Z,69.13
2018-03-14T10:40:59.887Z,69.13
2018-03-14T10:42:00.187Z,69.23
2018-03-14T10:43:00.199Z,69.04
2018-03-14T10:44:00.213Z,69.13
2018-03-14T10:44:59.943Z,69.04
2018-03-14T10:45:59.958Z,69.7
2018-03-14T10:47:00.264Z,68.94
2018-03-14T10:48:00.478Z,69.04
2018-03-14T10:49:00.003Z,68.94
2018-03-14T10:50:00.304Z,69.23
2018-03-14T10:51:00.311Z,69.19
2018-03-14T10:52:00.329Z,69.23
2018-03-14T10:53:00.341Z,69.23
2018-03-14T10:54:00.360Z,69.04
2018-03-14T10:55:00.086Z,69.42
2018-03-14T10:56:00.438Z,69.13
2018-03-14T10:57:00.115Z,69.23
2018-03-14T10:58:00.418Z,69.23
2018-03-14T10:59:00.187Z,69.42
2018-03-14T11:00:00.444Z,69.04
2018-03-14T11:01:00.455Z,69.23
2018-03-14T11:02:00.475Z,68.94
2018-03-14T11:03:00.485Z,69.13
2018-03-14T11:04:00.217Z,69
2018-03-14T11:05:00.580Z,68.46
2018-03-14T11:06:00.527Z,68.46
2018-03-14T11:07:00.538Z,68.46
2018-03-14T11:08:00.272Z,68.65
2018-03-14T11:09:00.569Z,68.56
2018-03-14T11:10:00.635Z,68.56
2018-03-14T11:11:00.614Z,68.84
2018-03-14T11:12:00.330Z,68.65
2018-03-14T11:13:00.342Z,68.27
2018-03-14T11:14:00.646Z,68.56
2018-03-14T11:15:00.707Z,67.41
2018-03-14T11:16:00.387Z,67.51
2018-03-14T11:17:00.401Z,67.51
2018-03-14T11:18:00.701Z,68.27
2018-03-14T11:19:00.714Z,67.7
2018-03-14T11:20:00.780Z,67.41
2018-03-14T11:21:00.746Z,67.7
2018-03-14T11:22:00.765Z,67.03
2018-03-14T11:23:00.487Z,67.13
2018-03-14T11:24:00.505Z,66.56
2018-03-14T11:25:00.522Z,66.94
2018-03-14T11:26:00.811Z,67.13
2018-03-14T11:27:00.831Z,67.22
2018-03-14T11:28:00.617Z,67.32
2018-03-14T11:29:00.859Z,66.94
2018-03-14T11:30:00.869Z,67.13
2018-03-14T11:31:00.606Z,66.75
2018-03-14T11:32:00.618Z,66.59
2018-03-14T11:33:00.923Z,66.97
2018-03-14T11:34:00.931Z,66.88
2018-03-14T11:35:00.946Z,66.97
2018-03-14T11:36:00.960Z,66.5
2018-03-14T11:37:00.692Z,66.5
2018-03-14T11:38:00.990Z,66.21
2018-03-14T11:39:01.002Z,66.11
2018-03-14T11:40:00.733Z,65.64
2018-03-14T11:41:00.750Z,65.73
2018-03-14T11:42:00.771Z,65.55
2018-03-14T11:43:01.064Z,65.96
2018-03-14T11:44:01.079Z,66.34
2018-03-14T11:45:00.807Z,65.86
2018-03-14T11:46:01.111Z,66.05
2018-03-14T11:47:01.121Z,65.39
2018-03-14T11:48:00.853Z,65.58
2018-03-14T11:49:01.150Z,65.58
2018-03-14T11:50:01.175Z,65.48
2018-03-14T11:51:00.897Z,64.34
2018-03-14T11:52:01.196Z,64.91
2018-03-14T11:53:01.213Z,64.72
2018-03-14T11:54:01.226Z,64.34
2018-03-14T11:55:01.242Z,63.86
2018-03-14T11:56:00.974Z,63.57
2018-03-14T11:57:01.270Z,63.76
2018-03-14T11:58:01.288Z,63.48
2018-03-14T11:59:01.298Z,63.86
2018-03-14T12:00:01.313Z,63.29
2018-03-14T12:01:01.330Z,63.76
2018-03-14T12:02:01.347Z,63.48
2018-03-14T12:03:01.359Z,62.62
2018-03-14T12:04:01.375Z,61.67
2018-03-14T12:05:01.106Z,61.29
2018-03-14T12:06:01.407Z,61.29
2018-03-14T12:07:01.141Z,61
2018-03-14T12:08:01.436Z,61
2018-03-14T12:09:01.175Z,60.81
2018-03-14T12:10:01.467Z,60.43
2018-03-14T12:11:01.200Z,60.24
2018-03-14T12:12:01.499Z,59.95
2018-03-14T12:13:01.514Z,58.91
2018-03-14T12:14:01.531Z,59.28
2018-03-14T12:15:01.543Z,58.91
2018-03-14T12:16:01.276Z,59.95
2018-03-14T12:17:01.288Z,59.86
2018-03-14T12:18:01.588Z,60.05
2018-03-14T12:19:01.602Z,59.76
2018-03-14T12:20:01.618Z,60.05
2018-03-14T12:21:01.401Z,59.86
2018-03-14T12:22:01.644Z,60.14
2018-03-14T12:23:01.660Z,59.95
2018-03-14T12:24:01.677Z,60.24
2018-03-14T12:25:01.704Z,60.24
2018-03-14T12:26:01.712Z,59.86
2018-03-14T12:27:01.722Z,60.05
2018-03-14T12:28:01.745Z,60.33
2018-03-14T12:29:01.760Z,60.14
2018-03-14T12:30:01.805Z,59.76
2018-03-14T12:31:01.787Z,60.05
2018-03-14T12:32:01.799Z,60.33
2018-03-14T12:33:01.835Z,60.52
2018-03-14T12:34:01.920Z,60.14
2018-03-14T12:35:01.564Z,60.14
2018-03-14T12:36:01.628Z,59.67
2018-03-14T12:37:01.974Z,59.16
2018-03-14T12:38:01.891Z,58.62
2018-03-14T12:39:01.908Z,58.21
2018-03-14T12:40:01.670Z,58.69
2018-03-14T12:41:01.986Z,58.78
2018-03-14T12:42:01.669Z,59.35
2018-03-14T12:43:01.967Z,58.5
2018-03-14T12:44:01.988Z,58.3
2018-03-14T12:45:01.999Z,57.92
2018-03-14T12:46:01.733Z,57.82
2018-03-14T12:47:02.027Z,57.92
2018-03-14T12:48:01.758Z,58.5
2018-03-14T12:49:02.058Z,58.78
2018-03-14T12:50:02.081Z,59.06
2018-03-14T12:51:02.138Z,59.28
2018-03-14T12:52:02.106Z,59.57
2018-03-14T12:53:01.836Z,59.48
2018-03-14T12:54:02.219Z,59.67
2018-03-14T12:55:02.150Z,59.67
2018-03-14T12:56:01.930Z,59